createdAt,value
2023-12-11T00:00:15.277Z,32.28
2023-12-11T00:01:23.835Z,28.55
2023-12-11T00:02:29.469Z,31.27
2023-12-11T00:03:36.278Z,27.38
2023-12-11T00:04:41.695Z,28.55
2023-12-11T00:05:49.008Z,31.23
2023-12-11T00:06:54.415Z,34.73
2023-12-11T00:08:01.140Z,30.35
2023-12-11T00:09:06.609Z,26.65
2023-12-11T00:10:13.952Z,28.30
2023-12-11T00:11:19.398Z,28.45
2023-12-11T00:12:26.069Z,27.23
2023-12-11T00:13:31.485Z,28.30
2023-12-11T00:14:38.232Z,27.70
2023-12-11T00:15:43.771Z,29.13
2023-12-11T00:16:52.170Z,30.58
2023-12-11T00:17:57.640Z,29.07
2023-12-11T00:19:04.750Z,32.45
2023-12-11T00:20:11.554Z,32.05
2023-12-11T00:21:18.415Z,31.70
2023-12-11T00:22:23.949Z,29.98
2023-12-11T00:23:31.483Z,29.48
2023-12-11T00:24:37.922Z,28.23
2023-12-11T00:25:50.238Z,28.52
2023-12-11T00:26:55.743Z,30.63
2023-12-11T00:28:02.708Z,28.50
2023-12-11T00:29:08.503Z,28.03
2023-12-11T00:30:16.792Z,28.45
2023-12-11T00:31:22.282Z,32.88
2023-12-11T00:32:30.719Z,33.40
2023-12-11T00:33:36.125Z,32.13
2023-12-11T00:34:43.101Z,31.25
2023-12-11T00:35:48.865Z,26.55
2023-12-11T00:36:55.693Z,32.08
2023-12-11T00:38:01.077Z,29.08
2023-12-11T00:39:07.889Z,27.42
2023-12-11T00:40:13.747Z,30.47
2023-12-11T00:41:21.118Z,28.08
2023-12-11T00:42:26.486Z,26.83
2023-12-11T00:43:44.472Z,26.67
2023-12-11T00:44:53.368Z,27.73
2023-12-11T00:46:00.230Z,29.77
2023-12-11T00:47:06.799Z,28.20
2023-12-11T00:48:15.949Z,26.38
2023-12-11T00:49:21.562Z,29.55
2023-12-11T00:50:28.331Z,28.42
2023-12-11T00:51:33.761Z,36.53
2023-12-11T00:52:41.583Z,30.70
2023-12-11T00:53:47.184Z,29.65
2023-12-11T00:54:53.992Z,28.40
2023-12-11T00:55:59.417Z,22.92
2023-12-11T00:57:06.191Z,27.73
2023-12-11T00:58:11.775Z,21.52
2023-12-11T00:59:18.539Z,24.63
2023-12-11T01:00:23.972Z,25.02
2023-12-11T01:01:30.879Z,26.73
2023-12-11T01:02:36.354Z,26.17
2023-12-11T01:03:45.027Z,25.13
2023-12-11T01:04:50.699Z,28.98
2023-12-11T01:05:57.709Z,28.05
2023-12-11T01:07:03.055Z,24.65
2023-12-11T01:08:10.517Z,23.73
2023-12-11T01:09:15.908Z,23.92
2023-12-11T01:10:22.761Z,22.70
2023-12-11T01:11:28.147Z,23.65
2023-12-11T01:12:34.914Z,20.48
2023-12-11T01:13:40.571Z,20.60
2023-12-11T01:14:47.238Z,24.73
2023-12-11T01:15:52.906Z,23.98
2023-12-11T01:16:59.718Z,23.67
2023-12-11T01:18:26.490Z,23.92
2023-12-11T01:19:35.135Z,24.70
2023-12-11T01:20:41.337Z,26.70
2023-12-11T01:21:48.965Z,21.55
2023-12-11T01:22:54.300Z,20.50
2023-12-11T01:24:00.987Z,20.70
2023-12-11T01:25:06.698Z,21.07
2023-12-11T01:26:13.532Z,20.88
2023-12-11T01:27:18.987Z,20.00
2023-12-11T01:28:25.715Z,21.08
2023-12-11T01:29:31.107Z,23.83
2023-12-11T01:30:37.888Z,23.17
2023-12-11T01:31:43.313Z,27.80
2023-12-11T01:32:50.117Z,20.30
2023-12-11T01:33:55.522Z,23.98
2023-12-11T01:35:04.113Z,21.67
2023-12-11T01:36:11.049Z,20.17
2023-12-11T01:37:17.738Z,21.42
2023-12-11T01:38:23.133Z,23.73
2023-12-11T01:39:30.006Z,20.42
2023-12-11T01:40:35.446Z,20.73
2023-12-11T01:41:44.588Z,19.10
2023-12-11T01:42:51.008Z,24.17
2023-12-11T01:43:57.976Z,20.85
2023-12-11T01:45:03.458Z,20.48
2023-12-11T01:46:11.756Z,18.50
2023-12-11T01:47:17.379Z,19.40
2023-12-11T01:48:22.917Z,18.95
2023-12-11T01:49:29.911Z,22.83
2023-12-11T01:50:37.153Z,17.85
2023-12-11T01:51:44.376Z,24.45
2023-12-11T01:52:49.862Z,23.65
2023-12-11T01:53:57.361Z,21.75
2023-12-11T01:55:02.878Z,24.23
2023-12-11T01:56:10.982Z,18.63
2023-12-11T01:57:17.249Z,21.65
2023-12-11T01:58:24.989Z,25.03
2023-12-11T01:59:30.606Z,22.45
2023-12-11T02:00:37.735Z,22.83
2023-12-11T02:01:43.364Z,21.67
2023-12-11T02:02:50.681Z,17.15
2023-12-11T02:03:56.343Z,17.77
2023-12-11T02:05:03.343Z,18.67
2023-12-11T02:06:10.778Z,20.60
2023-12-11T02:07:17.594Z,20.08
2023-12-11T02:08:23.008Z,19.95
2023-12-11T02:09:30.761Z,21.27
2023-12-11T02:10:36.287Z,18.73
2023-12-11T02:11:45.086Z,18.52
2023-12-11T02:12:52.083Z,17.63
2023-12-11T02:13:58.907Z,19.95
2023-12-11T02:15:04.372Z,26.88
2023-12-11T02:16:11.975Z,22.40
2023-12-11T02:17:17.352Z,18.85
2023-12-11T02:18:24.506Z,20.88
2023-12-11T02:19:30.012Z,22.50
2023-12-11T02:20:35.514Z,19.53
2023-12-11T02:21:43.916Z,19.80
2023-12-11T02:22:49.348Z,28.42
2023-12-11T02:24:00.056Z,22.15
2023-12-11T02:25:10.156Z,23.55
2023-12-11T02:26:19.362Z,26.92
2023-12-11T02:27:24.840Z,26.50
2023-12-11T02:28:31.577Z,26.77
2023-12-11T02:29:37.094Z,22.35
2023-12-11T02:30:54.576Z,20.42
2023-12-11T02:32:00.069Z,24.03
2023-12-11T02:33:06.887Z,19.17
2023-12-11T02:34:12.468Z,18.67
2023-12-11T02:35:19.435Z,20.60
2023-12-11T02:36:24.715Z,18.85
2023-12-11T02:37:31.649Z,23.02
2023-12-11T02:38:37.250Z,26.52
2023-12-11T02:39:44.085Z,22.65
2023-12-11T02:40:49.483Z,20.00
2023-12-11T02:41:57.925Z,21.73
2023-12-11T02:43:03.292Z,23.17
2023-12-11T02:44:10.211Z,18.27
2023-12-11T02:45:15.547Z,20.65
2023-12-11T02:46:22.256Z,19.75
2023-12-11T02:47:27.633Z,22.83
2023-12-11T02:48:35.124Z,22.33
2023-12-11T02:49:40.467Z,20.73
2023-12-11T02:50:47.425Z,20.25
2023-12-11T02:51:52.838Z,21.65
2023-12-11T02:53:00.712Z,21.35
2023-12-11T02:54:06.200Z,22.70
2023-12-11T02:55:13.223Z,20.88
2023-12-11T02:56:18.634Z,19.13
2023-12-11T02:57:27.165Z,19.55
2023-12-11T02:58:32.605Z,20.88
2023-12-11T02:59:39.781Z,27.70
2023-12-11T03:00:45.352Z,21.70
2023-12-11T03:01:52.269Z,24.83
2023-12-11T03:02:57.947Z,20.08
2023-12-11T03:04:04.878Z,22.80
2023-12-11T03:05:10.901Z,27.93
2023-12-11T03:06:23.244Z,22.35
2023-12-11T03:07:30.256Z,21.95
2023-12-11T03:08:37.084Z,24.17
2023-12-11T03:09:42.439Z,22.75
2023-12-11T03:10:50.383Z,24.42
2023-12-11T03:11:57.511Z,24.52
2023-12-11T03:13:06.105Z,24.30
2023-12-11T03:14:11.546Z,19.35
2023-12-11T03:15:18.478Z,21.38
2023-12-11T03:16:23.811Z,22.10
2023-12-11T03:17:31.102Z,19.02
2023-12-11T03:18:36.755Z,21.35
2023-12-11T03:19:43.984Z,28.15
2023-12-11T03:20:49.438Z,20.02
2023-12-11T03:21:58.262Z,21.25
2023-12-11T03:23:03.685Z,22.55
2023-12-11T03:24:10.604Z,19.13
2023-12-11T03:25:16.158Z,19.58
2023-12-11T03:26:22.957Z,18.17
2023-12-11T03:27:28.753Z,18.47
2023-12-11T03:28:42.968Z,17.50
2023-12-11T03:29:48.341Z,19.35
2023-12-11T03:30:55.203Z,20.60
2023-12-11T03:32:00.721Z,21.20
2023-12-11T03:33:07.491Z,22.23
2023-12-11T03:34:12.861Z,20.38
2023-12-11T03:35:18.374Z,21.08
2023-12-11T03:36:25.209Z,21.45
2023-12-11T03:37:30.741Z,21.27
2023-12-11T03:38:37.530Z,19.20
2023-12-11T03:39:43.980Z,22.20
2023-12-11T03:40:50.861Z,20.60
2023-12-11T03:41:56.250Z,17.90
2023-12-11T03:43:03.212Z,21.63
2023-12-11T03:44:10.474Z,21.70
2023-12-11T03:45:17.172Z,18.23
2023-12-11T03:46:22.533Z,21.27
2023-12-11T03:47:29.582Z,20.98
2023-12-11T03:48:35.196Z,21.95
2023-12-11T03:49:42.273Z,23.77
2023-12-11T03:50:47.663Z,20.35
2023-12-11T03:51:54.393Z,21.50
2023-12-11T03:52:59.960Z,23.50
2023-12-11T03:54:06.830Z,17.20
2023-12-11T03:55:12.433Z,18.55
2023-12-11T03:56:18.025Z,16.25
2023-12-11T03:57:24.964Z,22.38
2023-12-11T03:58:30.503Z,18.00
2023-12-11T03:59:37.744Z,16.60
2023-12-11T04:00:44.667Z,16.77
2023-12-11T04:01:50.340Z,22.33
2023-12-11T04:02:57.256Z,18.20
2023-12-11T04:04:03.616Z,19.92
2023-12-11T04:05:11.147Z,23.73
2023-12-11T04:06:16.618Z,24.73
2023-12-11T04:07:23.543Z,19.85
2023-12-11T04:08:29.094Z,18.88
2023-12-11T04:09:35.938Z,21.55
2023-12-11T04:10:41.696Z,18.63
2023-12-11T04:11:49.670Z,21.40
2023-12-11T04:12:55.092Z,23.38
2023-12-11T04:14:01.934Z,18.95
2023-12-11T04:15:10.282Z,21.92
2023-12-11T04:16:17.166Z,24.30
2023-12-11T04:17:23.066Z,24.48
2023-12-11T04:18:29.920Z,18.23
2023-12-11T04:19:35.472Z,19.23
2023-12-11T04:20:42.307Z,23.92
2023-12-11T04:21:47.865Z,20.85
2023-12-11T04:22:54.749Z,19.17
2023-12-11T04:24:00.459Z,19.60
2023-12-11T04:25:07.591Z,17.55
2023-12-11T04:26:13.197Z,20.55
2023-12-11T04:27:20.026Z,22.65
2023-12-11T04:28:25.442Z,23.45
2023-12-11T04:29:32.239Z,20.27
2023-12-11T04:30:39.612Z,19.35
2023-12-11T04:31:46.521Z,22.48
2023-12-11T04:32:52.005Z,21.65
2023-12-11T04:33:58.984Z,23.37
2023-12-11T04:35:04.544Z,19.85
2023-12-11T04:36:12.824Z,18.90
2023-12-11T04:37:18.477Z,21.15
2023-12-11T04:38:25.304Z,22.67
2023-12-11T04:39:30.748Z,22.85
2023-12-11T04:40:37.653Z,20.48
2023-12-11T04:41:43.060Z,21.98
2023-12-11T04:42:49.907Z,19.55
2023-12-11T04:43:55.457Z,21.70
2023-12-11T04:45:02.296Z,21.90
2023-12-11T04:46:09.831Z,21.02
2023-12-11T04:47:16.657Z,21.85
2023-12-11T04:48:22.217Z,23.90
2023-12-11T04:49:29.098Z,22.45
2023-12-11T04:50:34.585Z,25.10
2023-12-11T04:51:41.622Z,26.38
2023-12-11T04:52:47.109Z,25.65
2023-12-11T04:53:54.362Z,21.45
2023-12-11T04:55:00.399Z,24.48
2023-12-11T04:56:11.812Z,25.23
2023-12-11T04:57:17.243Z,24.13
2023-12-11T04:58:24.057Z,23.67
2023-12-11T04:59:29.518Z,25.63
2023-12-11T05:00:36.494Z,23.92
2023-12-11T05:01:43.786Z,20.95
2023-12-11T05:02:54.336Z,24.80
2023-12-11T05:03:59.840Z,23.85
2023-12-11T05:05:07.137Z,25.92
2023-12-11T05:06:12.843Z,30.77
2023-12-11T05:07:19.656Z,23.50
2023-12-11T05:08:26.710Z,22.17
2023-12-11T05:09:35.058Z,25.13
2023-12-11T05:10:40.667Z,24.65
2023-12-11T05:11:47.823Z,26.85
2023-12-11T05:12:53.337Z,26.33
2023-12-11T05:14:00.484Z,25.02
2023-12-11T05:15:06.066Z,22.55
2023-12-11T05:16:13.694Z,24.90
2023-12-11T05:17:21.137Z,24.35
2023-12-11T05:18:27.878Z,22.13
2023-12-11T05:19:33.572Z,25.07
2023-12-11T05:20:40.448Z,32.75
2023-12-11T05:21:47.314Z,25.90
2023-12-11T05:22:54.144Z,27.42
2023-12-11T05:23:59.673Z,21.17
2023-12-11T05:25:06.563Z,22.73
2023-12-11T05:26:11.989Z,24.23
2023-12-11T05:27:18.915Z,22.75
2023-12-11T05:28:24.310Z,23.02
2023-12-11T05:29:31.890Z,21.97
2023-12-11T05:30:37.342Z,21.97
2023-12-11T05:31:44.147Z,28.58
2023-12-11T05:32:51.631Z,24.73
2023-12-11T05:33:58.585Z,22.70
2023-12-11T05:35:04.363Z,21.38
2023-12-11T05:36:12.870Z,23.75
2023-12-11T05:37:18.471Z,20.58
2023-12-11T05:38:24.142Z,23.08
2023-12-11T05:39:30.947Z,21.48
2023-12-11T05:40:36.508Z,21.67
2023-12-11T05:41:43.270Z,21.40
2023-12-11T05:42:48.692Z,21.42
2023-12-11T05:43:55.625Z,26.08
2023-12-11T05:45:01.038Z,22.63
2023-12-11T05:46:08.507Z,23.08
2023-12-11T05:47:14.027Z,21.52
2023-12-11T05:48:22.813Z,23.17
2023-12-11T05:49:28.554Z,23.00
2023-12-11T05:50:36.310Z,20.48
2023-12-11T05:51:42.729Z,21.20
2023-12-11T05:52:48.302Z,21.70
2023-12-11T05:53:55.101Z,21.23
2023-12-11T05:55:00.675Z,21.83
2023-12-11T05:56:07.672Z,20.70
2023-12-11T05:57:13.161Z,21.83
2023-12-11T05:58:19.990Z,21.20
2023-12-11T05:59:25.491Z,18.52
2023-12-11T06:00:32.341Z,23.92
2023-12-11T06:01:37.870Z,20.67
2023-12-11T06:02:44.741Z,20.57
2023-12-11T06:03:52.040Z,20.80
2023-12-11T06:04:59.066Z,22.17
2023-12-11T06:06:04.629Z,20.88
2023-12-11T06:07:11.513Z,19.90
2023-12-11T06:08:17.040Z,21.33
2023-12-11T06:09:23.845Z,20.38
2023-12-11T06:10:29.455Z,20.05
2023-12-11T06:11:36.354Z,24.30
2023-12-11T06:12:42.006Z,18.75
2023-12-11T06:13:48.866Z,20.60
2023-12-11T06:14:54.440Z,19.50
2023-12-11T06:16:01.395Z,19.27
2023-12-11T06:17:07.135Z,18.00
2023-12-11T06:18:13.967Z,15.98
2023-12-11T06:19:21.287Z,20.90
2023-12-11T06:20:28.222Z,18.88
2023-12-11T06:21:33.772Z,20.75
2023-12-11T06:22:40.683Z,19.60
2023-12-11T06:23:46.158Z,17.25
2023-12-11T06:24:52.997Z,18.33
2023-12-11T06:25:58.500Z,17.30
2023-12-11T06:27:05.448Z,20.48
2023-12-11T06:28:11.027Z,19.05
2023-12-11T06:29:17.898Z,16.95
2023-12-11T06:30:23.586Z,15.90
2023-12-11T06:31:30.810Z,16.48
2023-12-11T06:32:36.384Z,17.60
2023-12-11T06:33:43.370Z,16.27
2023-12-11T06:34:50.967Z,19.25
2023-12-11T06:35:57.937Z,16.43
2023-12-11T06:37:03.588Z,15.40
2023-12-11T06:38:10.989Z,19.60
2023-12-11T06:39:16.577Z,17.65
2023-12-11T06:40:23.453Z,20.33
2023-12-11T06:41:28.868Z,17.73
2023-12-11T06:42:42.202Z,17.88
2023-12-11T06:43:49.733Z,16.77
2023-12-11T06:44:57.174Z,15.60
2023-12-11T06:46:02.697Z,16.40
2023-12-11T06:47:09.876Z,17.27
2023-12-11T06:48:15.450Z,19.07
2023-12-11T06:49:22.401Z,18.65
2023-12-11T06:50:29.918Z,18.35
2023-12-11T06:51:37.686Z,26.63
2023-12-11T06:52:43.207Z,16.80
2023-12-11T06:53:50.074Z,17.58
2023-12-11T06:54:55.820Z,19.90
2023-12-11T06:56:02.663Z,17.25
2023-12-11T06:57:08.411Z,17.48
2023-12-11T06:58:15.316Z,17.17
2023-12-11T06:59:20.864Z,20.33
2023-12-11T07:00:28.078Z,22.27
2023-12-11T07:01:33.988Z,17.83
2023-12-11T07:02:40.997Z,19.38
2023-12-11T07:03:47.771Z,18.40
2023-12-11T07:04:54.889Z,18.38
2023-12-11T07:06:03.067Z,18.75
2023-12-11T07:07:10.129Z,18.13
2023-12-11T07:08:15.634Z,17.73
2023-12-11T07:09:22.435Z,19.33
2023-12-11T07:10:28.012Z,18.17
2023-12-11T07:11:34.834Z,17.30
2023-12-11T07:12:43.147Z,20.88
2023-12-11T07:13:50.294Z,22.00
2023-12-11T07:14:55.745Z,25.17
2023-12-11T07:16:02.753Z,20.60
2023-12-11T07:17:08.319Z,20.27
2023-12-11T07:18:16.548Z,17.52
2023-12-11T07:19:22.679Z,21.10
2023-12-11T07:20:30.044Z,20.13
2023-12-11T07:21:37.427Z,19.97
2023-12-11T07:22:44.403Z,18.25
2023-12-11T07:23:50.809Z,18.13
2023-12-11T07:24:57.642Z,18.58
2023-12-11T07:26:03.135Z,18.77
2023-12-11T07:27:10.299Z,17.98
2023-12-11T07:28:16.395Z,19.98
2023-12-11T07:29:23.246Z,18.00
2023-12-11T07:30:29.646Z,18.05
2023-12-11T07:31:36.476Z,17.90
2023-12-11T07:32:42.295Z,18.30
2023-12-11T07:33:49.283Z,21.77
2023-12-11T07:34:54.864Z,19.55
2023-12-11T07:36:01.873Z,18.00
2023-12-11T07:37:09.222Z,17.83
2023-12-11T07:38:16.216Z,18.75
2023-12-11T07:39:21.719Z,21.30
2023-12-11T07:40:28.659Z,18.35
2023-12-11T07:41:34.161Z,20.20
2023-12-11T07:42:41.322Z,18.17
2023-12-11T07:43:46.824Z,16.90
2023-12-11T07:44:53.601Z,18.88
2023-12-11T07:45:59.171Z,19.42
2023-12-11T07:47:04.768Z,20.83
2023-12-11T07:48:11.752Z,19.27
2023-12-11T07:49:17.480Z,18.95
2023-12-11T07:50:24.535Z,18.38
2023-12-11T07:51:30.752Z,20.52
2023-12-11T07:52:39.409Z,19.73
2023-12-11T07:53:44.824Z,19.97
2023-12-11T07:54:51.733Z,18.70
2023-12-11T07:55:57.234Z,17.60
2023-12-11T07:57:04.068Z,17.88
2023-12-11T07:58:09.605Z,21.73
2023-12-11T07:59:16.400Z,20.88
2023-12-11T08:00:22.309Z,19.92
2023-12-11T08:01:32.189Z,21.75
2023-12-11T08:02:38.850Z,21.92
2023-12-11T08:03:46.194Z,20.20
2023-12-11T08:04:52.118Z,20.63
2023-12-11T08:05:59.066Z,18.93
2023-12-11T08:07:04.516Z,19.02
2023-12-11T08:08:13.040Z,18.40
2023-12-11T08:09:18.569Z,19.80
2023-12-11T08:10:25.619Z,18.65
2023-12-11T08:11:31.227Z,21.38
2023-12-11T08:12:38.215Z,20.73
2023-12-11T08:13:43.849Z,21.65
2023-12-11T08:14:50.697Z,20.73
2023-12-11T08:15:56.948Z,21.07
2023-12-11T08:17:03.809Z,21.40
2023-12-11T08:18:09.367Z,20.40
2023-12-11T08:19:16.342Z,21.67
2023-12-11T08:20:23.411Z,20.42
2023-12-11T08:21:30.405Z,20.10
2023-12-11T08:22:35.858Z,20.75
2023-12-11T08:23:46.753Z,19.33
2023-12-11T08:24:52.216Z,22.65
2023-12-11T08:25:59.650Z,23.63
2023-12-11T08:27:09.718Z,19.10
2023-12-11T08:28:16.678Z,21.93
2023-12-11T08:29:24.085Z,20.98
2023-12-11T08:30:31.066Z,18.35
2023-12-11T08:31:36.629Z,22.00
2023-12-11T08:32:43.940Z,20.42
2023-12-11T08:33:49.624Z,19.33
2023-12-11T08:34:56.508Z,30.70
2023-12-11T08:36:02.068Z,27.20
2023-12-11T08:37:11.185Z,23.77
2023-12-11T08:38:18.465Z,25.97
2023-12-11T08:39:27.111Z,22.17
2023-12-11T08:40:34.084Z,21.33
2023-12-11T08:41:43.945Z,22.05
2023-12-11T08:42:49.620Z,22.42
2023-12-11T08:43:56.632Z,21.75
2023-12-11T08:45:02.167Z,23.05
2023-12-11T08:46:09.344Z,20.50
2023-12-11T08:47:14.875Z,22.90
2023-12-11T08:48:21.841Z,22.55
2023-12-11T08:49:27.789Z,21.27
2023-12-11T08:50:34.718Z,24.37
2023-12-11T08:51:40.648Z,24.70
2023-12-11T08:52:47.703Z,24.48
2023-12-11T08:53:53.959Z,22.20
2023-12-11T08:55:02.820Z,24.63
2023-12-11T08:56:08.752Z,22.10
2023-12-11T08:57:16.029Z,22.33
2023-12-11T08:58:21.857Z,24.70
2023-12-11T08:59:28.627Z,24.35
2023-12-11T09:00:34.077Z,21.47
2023-12-11T09:01:44.101Z,21.50
2023-12-11T09:02:49.502Z,25.70
2023-12-11T09:03:56.320Z,22.95
2023-12-11T09:05:01.833Z,25.67
2023-12-11T09:06:09.392Z,23.27
2023-12-11T09:07:14.959Z,29.80
2023-12-11T09:08:21.883Z,31.67
2023-12-11T09:09:27.445Z,25.27
2023-12-11T09:10:35.943Z,22.02
2023-12-11T09:11:41.394Z,21.83
2023-12-11T09:12:48.313Z,22.83
2023-12-11T09:13:53.821Z,23.40
2023-12-11T09:15:00.724Z,23.63
2023-12-11T09:16:06.539Z,25.73
2023-12-11T09:17:13.520Z,22.50
2023-12-11T09:18:19.161Z,23.33
2023-12-11T09:19:35.843Z,23.83
2023-12-11T09:20:47.577Z,23.98
2023-12-11T09:21:54.449Z,27.63
2023-12-11T09:22:59.932Z,25.23
2023-12-11T09:24:08.574Z,25.77
2023-12-11T09:25:14.259Z,28.52
2023-12-11T09:26:23.208Z,29.63
2023-12-11T09:27:29.047Z,36.17
2023-12-11T09:28:41.630Z,28.15
2023-12-11T09:29:55.153Z,28.38
2023-12-11T09:31:02.097Z,25.70
2023-12-11T09:32:08.332Z,28.52
2023-12-11T09:33:15.342Z,34.75
2023-12-11T09:34:20.953Z,23.50
2023-12-11T09:35:28.154Z,24.60
2023-12-11T09:36:33.890Z,26.42
2023-12-11T09:37:40.724Z,25.10
2023-12-11T09:38:47.784Z,27.08
2023-12-11T09:39:55.243Z,26.25
2023-12-11T09:41:01.823Z,27.65
2023-12-11T09:42:11.088Z,31.08
2023-12-11T09:43:16.888Z,26.88
2023-12-11T09:44:24.980Z,30.13
2023-12-11T09:45:30.562Z,25.80
2023-12-11T09:46:46.356Z,26.57
2023-12-11T09:48:04.973Z,27.52
2023-12-11T09:49:18.373Z,25.40
2023-12-11T09:50:24.353Z,26.27
2023-12-11T09:51:31.257Z,25.95
2023-12-11T09:52:37.121Z,28.83
2023-12-11T09:53:43.992Z,33.20
2023-12-11T09:54:54.559Z,30.65
2023-12-11T09:56:01.734Z,27.92
2023-12-11T09:57:10.802Z,30.43
2023-12-11T09:58:18.001Z,27.40
2023-12-11T09:59:23.958Z,34.72
2023-12-11T10:00:30.794Z,30.77
2023-12-11T10:01:36.777Z,33.50
2023-12-11T10:02:44.275Z,31.52
2023-12-11T10:03:51.252Z,27.83
2023-12-11T10:05:06.146Z,28.60
2023-12-11T10:06:15.438Z,33.47
2023-12-11T10:07:21.050Z,29.48
2023-12-11T10:08:27.812Z,32.67
2023-12-11T10:09:35.902Z,30.60
2023-12-11T10:10:43.473Z,33.65
2023-12-11T10:12:01.929Z,30.50
2023-12-11T10:13:10.676Z,32.10
2023-12-11T10:14:16.160Z,36.30
2023-12-11T10:15:26.079Z,31.45
2023-12-11T10:16:33.496Z,32.30
2023-12-11T10:17:39.010Z,35.10
2023-12-11T10:18:53.475Z,35.38
2023-12-11T10:19:59.232Z,34.10
2023-12-11T10:21:06.699Z,40.87
2023-12-11T10:22:20.193Z,35.28
2023-12-11T10:23:27.098Z,37.55
2023-12-11T10:24:33.698Z,44.97
2023-12-11T10:25:40.508Z,43.80
2023-12-11T10:26:49.663Z,40.03
2023-12-11T10:27:56.460Z,38.92
2023-12-11T10:29:20.643Z,42.13
2023-12-11T10:30:27.582Z,38.22
2023-12-11T10:31:38.687Z,41.17
2023-12-11T10:32:45.875Z,37.83
2023-12-11T10:33:52.350Z,45.33
2023-12-11T10:34:59.390Z,41.45
2023-12-11T10:36:19.254Z,47.90
2023-12-11T10:37:33.841Z,47.95
2023-12-11T10:38:39.447Z,48.65
2023-12-11T10:39:57.396Z,50.97
2023-12-11T10:41:02.754Z,57.85
2023-12-11T10:42:22.782Z,57.75
2023-12-11T10:43:30.279Z,54.10
2023-12-11T10:44:47.149Z,50.13
2023-12-11T10:46:01.163Z,47.42
2023-12-11T10:47:08.426Z,45.53
2023-12-11T10:48:14.053Z,47.20
2023-12-11T10:49:22.219Z,49.13
2023-12-11T10:50:28.061Z,45.45
2023-12-11T10:51:37.521Z,44.80
2023-12-11T10:52:44.992Z,45.28
2023-12-11T10:53:51.920Z,45.88
2023-12-11T10:54:57.325Z,48.87
2023-12-11T10:56:04.271Z,40.77
2023-12-11T10:57:15.663Z,39.30
2023-12-11T10:58:22.982Z,37.60
2023-12-11T10:59:28.369Z,37.47
2023-12-11T11:00:37.268Z,40.85
2023-12-11T11:01:43.929Z,37.08
2023-12-11T11:02:53.349Z,35.90
2023-12-11T11:03:58.928Z,37.92
2023-12-11T11:05:06.878Z,35.55
2023-12-11T11:06:12.641Z,36.77
2023-12-11T11:07:27.207Z,35.37
2023-12-11T11:08:41.167Z,36.63
2023-12-11T11:09:54.162Z,42.10
2023-12-11T11:11:05.814Z,38.03
2023-12-11T11:12:17.495Z,36.08
2023-12-11T11:13:47.111Z,39.45
2023-12-11T11:14:52.727Z,41.00
2023-12-11T11:16:01.037Z,45.15
2023-12-11T11:17:06.391Z,48.72
2023-12-11T11:18:14.023Z,48.97
2023-12-11T11:19:19.409Z,45.40
2023-12-11T11:20:25.851Z,44.67
2023-12-11T11:21:32.480Z,48.58
2023-12-11T11:22:41.048Z,43.30
2023-12-11T11:23:48.622Z,52.17
2023-12-11T11:24:54.390Z,55.60
2023-12-11T11:26:02.132Z,47.20
2023-12-11T11:27:07.866Z,43.13
2023-12-11T11:28:43.904Z,39.10
2023-12-11T11:29:49.986Z,45.60
2023-12-11T11:30:56.727Z,45.87
2023-12-11T11:32:04.250Z,44.60
2023-12-11T11:33:11.829Z,46.25
2023-12-11T11:34:17.775Z,50.72
2023-12-11T11:36:03.769Z,47.97
2023-12-11T11:37:09.142Z,43.75
2023-12-11T11:38:14.534Z,48.88
2023-12-11T11:39:21.177Z,49.58
2023-12-11T11:40:37.238Z,44.63
2023-12-11T11:41:44.236Z,44.57
2023-12-11T11:42:49.572Z,52.25
2023-12-11T11:44:08.776Z,50.97
2023-12-11T11:45:14.318Z,47.35
2023-12-11T11:46:21.538Z,49.00
2023-12-11T11:47:29.519Z,50.60
2023-12-11T11:48:49.153Z,53.00
2023-12-11T11:49:55.968Z,61.50
2023-12-11T11:51:03.104Z,76.68
2023-12-11T11:52:09.985Z,58.85
2023-12-11T11:53:21.370Z,64.13
2023-12-11T11:54:27.919Z,74.30
2023-12-11T11:55:35.171Z,66.75
2023-12-11T11:56:49.541Z,60.65
2023-12-11T11:57:56.749Z,61.70
2023-12-11T11:59:18.364Z,60.53
2023-12-11T12:00:27.419Z,53.97
2023-12-11T12:01:32.756Z,54.42
2023-12-11T12:02:41.153Z,57.42
2023-12-11T12:03:47.041Z,49.17
2023-12-11T12:04:53.996Z,52.03
2023-12-11T12:05:59.451Z,53.17
2023-12-11T12:07:07.163Z,49.53
2023-12-11T12:08:12.580Z,55.65
2023-12-11T12:09:21.145Z,51.58
2023-12-11T12:10:27.849Z,48.65
2023-12-11T12:11:38.570Z,61.10
2023-12-11T12:12:45.194Z,71.75
2023-12-11T12:13:50.491Z,58.25
2023-12-11T12:15:07.028Z,74.88
2023-12-11T12:16:13.424Z,82.77
2023-12-11T12:17:20.157Z,79.35
2023-12-11T12:18:27.251Z,84.10
2023-12-11T12:19:37.501Z,83.00
2023-12-11T12:20:42.965Z,59.08
2023-12-11T12:21:55.030Z,58.70
2023-12-11T12:23:01.419Z,69.68
2023-12-11T12:24:08.968Z,65.63
2023-12-11T12:25:18.899Z,101.20
2023-12-11T12:26:25.743Z,114.18
2023-12-11T12:27:31.577Z,154.13
2023-12-11T12:28:38.387Z,148.57
2023-12-11T12:29:45.181Z,143.63
2023-12-11T12:30:51.929Z,130.32
2023-12-11T12:31:57.345Z,107.63
2023-12-11T12:33:04.584Z,104.35
2023-12-11T12:34:11.930Z,106.65
2023-12-11T12:35:17.624Z,107.50
2023-12-11T12:36:24.291Z,92.15
2023-12-11T12:37:30.516Z,69.97
2023-12-11T12:38:37.473Z,66.43
2023-12-11T12:39:43.061Z,64.35
2023-12-11T12:40:49.847Z,67.40
2023-12-11T12:41:55.660Z,59.15
2023-12-11T12:43:02.424Z,66.82
2023-12-11T12:44:07.899Z,64.82
2023-12-11T12:45:23.186Z,67.05
2023-12-11T12:46:42.177Z,72.22
2023-12-11T12:47:52.147Z,69.05
2023-12-11T12:48:57.532Z,77.93
2023-12-11T12:50:09.342Z,65.17
2023-12-11T12:51:14.927Z,81.88
2023-12-11T12:52:28.438Z,69.40
2023-12-11T12:53:33.896Z,65.75
2023-12-11T12:54:53.539Z,60.63
2023-12-11T12:55:58.902Z,66.90
2023-12-11T12:57:05.599Z,69.32
2023-12-11T12:58:12.070Z,68.57
2023-12-11T12:59:22.606Z,60.00
2023-12-11T13:00:29.705Z,58.90
2023-12-11T13:01:41.057Z,58.13
2023-12-11T13:03:04.527Z,61.60
2023-12-11T13:04:13.168Z,67.78
2023-12-11T13:05:21.977Z,56.40
2023-12-11T13:06:30.409Z,58.08
2023-12-11T13:07:37.276Z,58.00
2023-12-11T13:08:49.262Z,69.75
2023-12-11T13:09:59.295Z,66.97
2023-12-11T13:11:09.682Z,86.00
2023-12-11T13:12:17.676Z,70.75
2023-12-11T13:13:25.350Z,75.67
2023-12-11T13:14:31.961Z,79.40
2023-12-11T13:15:39.825Z,70.38
2023-12-11T13:16:48.757Z,77.53
2023-12-11T13:17:58.217Z,68.25
2023-12-11T13:19:05.259Z,66.70
2023-12-11T13:20:13.288Z,74.25
2023-12-11T13:21:21.315Z,69.68
2023-12-11T13:22:28.939Z,68.38
2023-12-11T13:23:34.954Z,72.72
2023-12-11T13:24:42.240Z,68.30
2023-12-11T13:25:48.141Z,68.63
2023-12-11T13:26:55.228Z,80.95
2023-12-11T13:28:03.253Z,71.38
2023-12-11T13:29:10.136Z,80.00
2023-12-11T13:30:18.249Z,71.88
2023-12-11T13:31:25.600Z,81.40
2023-12-11T13:32:31.792Z,84.32
2023-12-11T13:33:38.623Z,111.03
2023-12-11T13:34:44.908Z,109.55
2023-12-11T13:35:52.865Z,106.27
2023-12-11T13:37:00.468Z,118.38
2023-12-11T13:38:07.886Z,113.18
2023-12-11T13:39:14.430Z,113.10
2023-12-11T13:40:21.288Z,116.45
2023-12-11T13:41:27.111Z,163.80
2023-12-11T13:42:34.466Z,149.02
2023-12-11T13:43:39.878Z,133.40
2023-12-11T13:44:47.183Z,107.60
2023-12-11T13:45:52.977Z,99.47
2023-12-11T13:47:00.266Z,94.50
2023-12-11T13:48:32.367Z,132.35
2023-12-11T13:49:40.905Z,151.20
2023-12-11T13:50:46.396Z,178.75
2023-12-11T13:51:53.305Z,177.93
2023-12-11T13:53:01.065Z,146.95
2023-12-11T13:54:08.007Z,130.18
2023-12-11T13:55:13.590Z,121.28
2023-12-11T13:56:21.115Z,117.53
2023-12-11T13:57:26.629Z,116.78
2023-12-11T13:58:34.885Z,107.07
2023-12-11T13:59:40.428Z,98.32
2023-12-11T14:00:47.737Z,90.68
2023-12-11T14:01:56.431Z,87.45
2023-12-11T14:03:04.883Z,86.10
2023-12-11T14:04:14.612Z,78.70
2023-12-11T14:05:22.266Z,71.00
2023-12-11T14:06:27.915Z,73.15
2023-12-11T14:07:35.086Z,77.20
2023-12-11T14:08:42.842Z,83.40
2023-12-11T14:09:50.473Z,77.20
2023-12-11T14:10:56.646Z,61.25
2023-12-11T14:12:03.940Z,66.07
2023-12-11T14:13:15.082Z,69.55
2023-12-11T14:14:21.911Z,66.47
2023-12-11T14:15:28.005Z,66.28
2023-12-11T14:16:35.229Z,63.70
2023-12-11T14:17:41.272Z,62.13
2023-12-11T14:18:48.881Z,61.22
2023-12-11T14:19:54.906Z,59.95
2023-12-11T14:21:02.881Z,62.47
2023-12-11T14:22:08.834Z,62.15
2023-12-11T14:23:16.391Z,63.80
2023-12-11T14:24:24.184Z,65.28
2023-12-11T14:25:31.651Z,63.28
2023-12-11T14:26:47.195Z,62.28